createdAt,value
2019-02-25T00:01:39.931Z,15.90
2019-02-25T00:04:09.640Z,16.75
2019-02-25T00:06:39.159Z,17.30
2019-02-25T00:09:09.115Z,14.93
2019-02-25T00:11:38.732Z,17.27
2019-02-25T00:14:08.281Z,24.35
2019-02-25T00:16:37.515Z,16.73
2019-02-25T00:19:06.868Z,15.95
2019-02-25T00:21:36.031Z,15.18
2019-02-25T00:24:05.407Z,16.30
2019-02-25T00:26:34.945Z,18.77
2019-02-25T00:29:04.211Z,18.57
2019-02-25T00:31:33.483Z,15.08
2019-02-25T00:34:02.809Z,16.87
2019-02-25T00:36:33.478Z,16.67
2019-02-25T00:39:02.672Z,16.00
2019-02-25T00:41:32.302Z,18.65
2019-02-25T00:44:01.507Z,19.95
2019-02-25T00:46:30.718Z,17.55
2019-02-25T00:48:59.959Z,16.42
2019-02-25T00:51:29.120Z,19.12
2019-02-25T00:53:58.268Z,18.17
2019-02-25T00:56:27.766Z,18.67
2019-02-25T00:58:56.899Z,16.52
2019-02-25T01:01:26.867Z,17.17
2019-02-25T01:03:56.324Z,17.90
2019-02-25T01:06:25.544Z,14.33
2019-02-25T01:08:54.835Z,16.67
2019-02-25T01:11:24.031Z,15.70
2019-02-25T01:13:53.238Z,14.53
2019-02-25T01:16:23.034Z,16.30
2019-02-25T01:18:52.333Z,17.05
2019-02-25T01:21:21.886Z,15.38
2019-02-25T01:23:51.003Z,15.08
2019-02-25T01:26:20.219Z,15.00
2019-02-25T01:28:49.356Z,15.90
2019-02-25T01:31:18.916Z,14.35
2019-02-25T01:33:48.254Z,14.87
2019-02-25T01:36:18.113Z,14.07
2019-02-25T01:38:48.469Z,14.90
2019-02-25T01:41:17.891Z,14.03
2019-02-25T01:43:47.066Z,16.37
2019-02-25T01:46:16.295Z,18.30
2019-02-25T01:48:45.518Z,17.67
2019-02-25T01:51:14.977Z,23.60
2019-02-25T01:53:44.881Z,22.95
2019-02-25T01:56:15.287Z,21.70
2019-02-25T01:58:44.457Z,17.90
2019-02-25T02:01:13.669Z,19.63
2019-02-25T02:03:42.823Z,21.50
2019-02-25T02:06:12.024Z,17.60
2019-02-25T02:08:41.169Z,20.83
2019-02-25T02:11:10.332Z,18.80
2019-02-25T02:13:39.755Z,17.80
2019-02-25T02:16:09.002Z,16.53
2019-02-25T02:18:38.251Z,18.00
2019-02-25T02:21:07.396Z,13.88
2019-02-25T02:23:36.531Z,16.00
2019-02-25T02:26:05.690Z,20.93
2019-02-25T02:28:34.895Z,19.83
2019-02-25T02:31:04.084Z,14.70
2019-02-25T02:33:33.294Z,16.95
2019-02-25T02:36:02.711Z,19.10
2019-02-25T02:38:31.901Z,14.83
2019-02-25T02:41:02.054Z,13.33
2019-02-25T02:43:31.567Z,13.10
2019-02-25T02:46:09.327Z,15.77
2019-02-25T02:48:42.663Z,16.90
2019-02-25T02:51:11.888Z,14.67
2019-02-25T02:53:41.373Z,17.97
2019-02-25T02:56:10.830Z,19.07
2019-02-25T02:58:40.011Z,16.73
2019-02-25T03:01:09.132Z,16.27
2019-02-25T03:03:38.402Z,13.10
2019-02-25T03:06:07.563Z,14.17
2019-02-25T03:08:36.819Z,13.87
2019-02-25T03:11:06.017Z,14.27
2019-02-25T03:13:35.521Z,13.98
2019-02-25T03:16:04.799Z,15.03
2019-02-25T03:18:33.972Z,16.07
2019-02-25T03:21:03.377Z,16.82
2019-02-25T03:23:32.599Z,17.97
2019-02-25T03:26:01.727Z,18.87
2019-02-25T03:28:30.973Z,15.97
2019-02-25T03:31:00.108Z,15.90
2019-02-25T03:33:29.879Z,19.60
2019-02-25T03:35:59.028Z,16.93
2019-02-25T03:38:28.223Z,16.73
2019-02-25T03:40:57.368Z,17.43
2019-02-25T03:43:26.616Z,19.20
2019-02-25T03:45:55.739Z,15.77
2019-02-25T03:48:25.295Z,13.20
2019-02-25T03:50:54.755Z,16.20
2019-02-25T03:53:24.014Z,20.13
2019-02-25T03:55:53.594Z,17.90
2019-02-25T03:58:22.700Z,22.27
2019-02-25T04:00:51.922Z,17.70
2019-02-25T04:03:21.068Z,17.50
2019-02-25T04:05:51.311Z,19.82
2019-02-25T04:08:20.444Z,20.00
2019-02-25T04:10:49.878Z,16.03
2019-02-25T04:13:19.034Z,20.05
2019-02-25T04:15:49.306Z,22.20
2019-02-25T04:18:18.533Z,16.97
2019-02-25T04:20:48.021Z,20.33
2019-02-25T04:23:17.503Z,19.83
2019-02-25T04:25:46.741Z,20.30
2019-02-25T04:28:15.930Z,18.57
2019-02-25T04:30:45.072Z,20.08
2019-02-25T04:33:14.681Z,17.80
2019-02-25T04:35:44.770Z,19.00
2019-02-25T04:38:14.037Z,16.10
2019-02-25T04:40:43.544Z,16.73
2019-02-25T04:43:12.759Z,19.53
2019-02-25T04:45:42.364Z,18.23
2019-02-25T04:48:11.885Z,15.10
2019-02-25T04:50:41.184Z,20.50
2019-02-25T04:53:10.391Z,17.57
2019-02-25T04:55:39.566Z,20.13
2019-02-25T04:58:09.245Z,19.30
2019-02-25T05:00:38.496Z,19.43
2019-02-25T05:03:08.296Z,19.07
2019-02-25T05:05:39.801Z,18.35
2019-02-25T05:08:09.432Z,20.20
2019-02-25T05:10:38.649Z,18.52
2019-02-25T05:13:08.400Z,19.05
2019-02-25T05:15:37.724Z,21.55
2019-02-25T05:18:08.249Z,17.60
2019-02-25T05:20:37.671Z,17.50
2019-02-25T05:23:07.245Z,18.10
2019-02-25T05:25:37.998Z,16.50
2019-02-25T05:28:07.415Z,17.37
2019-02-25T05:30:36.559Z,22.20
2019-02-25T05:33:05.826Z,18.00
2019-02-25T05:35:35.590Z,20.87
2019-02-25T05:38:05.442Z,18.30
2019-02-25T05:40:35.964Z,26.53
2019-02-25T05:43:05.417Z,20.00
2019-02-25T05:45:35.322Z,20.40
2019-02-25T05:48:05.158Z,20.13
2019-02-25T05:50:34.366Z,20.67
2019-02-25T05:53:03.518Z,26.30
2019-02-25T05:55:34.281Z,17.93
2019-02-25T05:58:03.807Z,20.57
2019-02-25T06:00:33.798Z,17.10
2019-02-25T06:03:03.301Z,17.82
2019-02-25T06:05:33.419Z,21.83
2019-02-25T06:08:02.728Z,18.00
2019-02-25T06:10:32.243Z,17.60
2019-02-25T06:13:01.698Z,18.30
2019-02-25T06:15:31.328Z,17.10
2019-02-25T06:18:02.011Z,17.50
2019-02-25T06:20:43.234Z,19.50
2019-02-25T06:23:13.362Z,16.23
2019-02-25T06:25:42.714Z,22.87
2019-02-25T06:28:11.991Z,22.87
2019-02-25T06:30:44.742Z,17.27
2019-02-25T06:33:12.030Z,20.27
2019-02-25T06:35:41.241Z,17.20
2019-02-25T06:38:10.463Z,18.33
2019-02-25T06:40:40.174Z,19.20
2019-02-25T06:43:09.787Z,20.17
2019-02-25T06:45:39.342Z,20.70
2019-02-25T06:48:08.499Z,30.75
2019-02-25T06:50:37.632Z,19.67
2019-02-25T06:53:07.107Z,20.50
2019-02-25T06:55:36.290Z,18.73
2019-02-25T06:58:06.664Z,19.20
2019-02-25T07:00:35.996Z,16.40
2019-02-25T07:03:05.832Z,19.17
2019-02-25T07:05:57.111Z,19.60
2019-02-25T07:08:45.274Z,29.20
2019-02-25T07:11:32.540Z,32.90
2019-02-25T07:14:23.446Z,30.57
2019-02-25T07:17:22.675Z,24.50
2019-02-25T07:20:14.062Z,24.97
2019-02-25T07:22:52.323Z,24.67
2019-02-25T07:25:49.757Z,25.70
2019-02-25T07:28:41.059Z,22.00
2019-02-25T07:31:33.903Z,24.10
2019-02-25T07:34:25.261Z,19.53
2019-02-25T07:37:19.587Z,27.40
2019-02-25T07:39:55.687Z,24.70
2019-02-25T07:42:42.683Z,21.33
2019-02-25T07:45:31.673Z,18.53
2019-02-25T07:48:15.973Z,18.30
2019-02-25T07:51:04.436Z,21.65
2019-02-25T07:53:51.198Z,20.40
2019-02-25T07:56:42.239Z,18.60
2019-02-25T07:59:28.980Z,25.13
2019-02-25T08:02:23.016Z,15.67
2019-02-25T08:05:11.182Z,23.80
2019-02-25T08:07:59.655Z,16.47
2019-02-25T08:10:50.600Z,18.03
2019-02-25T08:13:38.828Z,15.03
2019-02-25T08:16:27.013Z,19.00
2019-02-25T08:19:09.670Z,18.97
2019-02-25T08:21:56.613Z,12.73
2019-02-25T08:24:34.490Z,16.50
2019-02-25T08:27:11.000Z,16.00
2019-02-25T08:29:58.161Z,15.53
2019-02-25T08:32:39.009Z,20.53
2019-02-25T08:35:32.628Z,21.12
2019-02-25T08:38:23.557Z,20.77
2019-02-25T08:41:26.976Z,20.23
2019-02-25T08:44:24.184Z,22.10
2019-02-25T08:47:21.225Z,30.47
2019-02-25T08:50:01.892Z,17.27
2019-02-25T08:52:31.076Z,14.70
2019-02-25T08:55:00.339Z,13.90
2019-02-25T08:57:29.484Z,15.77
2019-02-25T08:59:58.903Z,18.23
2019-02-25T09:02:30.480Z,18.00
2019-02-25T09:04:59.647Z,18.90
2019-02-25T09:07:28.789Z,13.80
2019-02-25T09:09:58.062Z,13.03
2019-02-25T09:12:27.241Z,14.00
2019-02-25T09:14:56.611Z,14.53
2019-02-25T09:17:25.845Z,16.87
2019-02-25T09:19:55.078Z,12.23
2019-02-25T09:22:24.459Z,18.10
2019-02-25T09:24:54.003Z,11.07
2019-02-25T09:27:23.525Z,11.40
2019-02-25T09:29:52.703Z,18.37
2019-02-25T09:32:22.475Z,12.78
2019-02-25T09:34:51.697Z,12.43
2019-02-25T09:37:23.739Z,16.52
2019-02-25T09:39:53.020Z,12.13
2019-02-25T09:42:22.175Z,13.15
2019-02-25T09:44:54.505Z,10.77
2019-02-25T09:47:24.011Z,17.13
2019-02-25T09:49:53.478Z,12.53
2019-02-25T09:52:22.687Z,10.70
2019-02-25T09:54:51.942Z,11.60
2019-02-25T09:57:22.133Z,11.93
2019-02-25T09:59:51.506Z,11.93
2019-02-25T10:02:20.734Z,14.93
2019-02-25T10:04:50.043Z,13.40
2019-02-25T10:07:19.353Z,16.90
2019-02-25T10:09:48.558Z,11.40
2019-02-25T10:12:17.935Z,11.50
2019-02-25T10:14:47.131Z,11.25
2019-02-25T10:17:23.495Z,11.30
2019-02-25T10:19:47.503Z,13.53
2019-02-25T10:22:17.051Z,11.57
2019-02-25T10:24:46.204Z,11.03
2019-02-25T10:27:15.346Z,16.83
2019-02-25T10:29:44.497Z,16.73
2019-02-25T10:32:13.685Z,14.50
2019-02-25T10:34:42.960Z,11.00
2019-02-25T10:37:13.116Z,9.35
2019-02-25T10:39:45.321Z,12.93
2019-02-25T10:42:15.619Z,14.17
2019-02-25T10:44:44.818Z,14.70
2019-02-25T10:47:15.647Z,8.85
2019-02-25T10:49:45.534Z,10.63
2019-02-25T10:52:17.133Z,11.90
2019-02-25T10:54:47.784Z,12.13
2019-02-25T10:57:21.964Z,10.73
2019-02-25T10:59:50.957Z,10.70
2019-02-25T11:02:20.460Z,10.20
2019-02-25T11:04:51.348Z,10.07
2019-02-25T11:07:20.623Z,11.17
2019-02-25T11:09:57.483Z,11.83
2019-02-25T11:12:27.959Z,11.83
2019-02-25T11:14:57.618Z,8.90
2019-02-25T11:17:27.546Z,9.03
2019-02-25T11:20:01.329Z,9.13
2019-02-25T11:22:30.349Z,12.70
2019-02-25T11:24:59.518Z,8.80
2019-02-25T11:27:30.842Z,9.57
2019-02-25T11:29:59.858Z,12.07
2019-02-25T11:32:29.071Z,10.43
2019-02-25T11:34:58.867Z,10.80
2019-02-25T11:37:28.056Z,13.05
2019-02-25T11:39:59.342Z,10.27
2019-02-25T11:42:28.224Z,9.53
2019-02-25T11:44:59.839Z,9.97
2019-02-25T11:47:28.346Z,8.10
2019-02-25T11:49:57.911Z,10.00
2019-02-25T11:52:27.095Z,7.77
2019-02-25T11:54:56.251Z,13.00
2019-02-25T11:57:25.725Z,8.30
2019-02-25T11:59:55.245Z,6.90
2019-02-25T12:02:25.826Z,6.30
2019-02-25T12:04:55.367Z,7.73
2019-02-25T12:07:26.227Z,6.00
2019-02-25T12:09:55.471Z,6.97
2019-02-25T12:12:24.596Z,6.23
2019-02-25T12:14:53.720Z,6.13
2019-02-25T12:17:22.943Z,7.03
2019-02-25T12:19:52.181Z,6.20
2019-02-25T12:22:21.282Z,5.67
2019-02-25T12:24:50.581Z,8.07
2019-02-25T12:27:19.731Z,6.80
2019-02-25T12:29:49.278Z,5.30
2019-02-25T12:32:18.427Z,14.73
2019-02-25T12:34:47.559Z,14.90
2019-02-25T12:37:16.995Z,5.45
2019-02-25T12:39:46.213Z,7.57
2019-02-25T12:42:15.768Z,7.50
2019-02-25T12:44:44.999Z,8.57
2019-02-25T12:47:14.452Z,6.90
2019-02-25T12:49:43.850Z,7.60
2019-02-25T12:52:13.290Z,6.97
2019-02-25T12:54:42.426Z,15.05
2019-02-25T12:57:11.841Z,8.57
2019-02-25T12:59:41.287Z,7.80
2019-02-25T13:02:10.523Z,12.00
2019-02-25T13:04:39.763Z,8.07
2019-02-25T13:07:09.540Z,13.83
2019-02-25T13:09:38.822Z,9.27
2019-02-25T13:12:08.338Z,9.40
2019-02-25T13:14:37.450Z,11.63
2019-02-25T13:17:06.943Z,8.43
2019-02-25T13:19:37.019Z,8.00
2019-02-25T13:22:06.250Z,7.73
2019-02-25T13:24:37.276Z,8.60
2019-02-25T13:27:08.018Z,8.37
2019-02-25T13:29:37.295Z,8.27
2019-02-25T13:32:06.539Z,8.13
2019-02-25T13:34:36.030Z,9.75
2019-02-25T13:37:05.605Z,10.37
2019-02-25T13:39:35.009Z,10.37
2019-02-25T13:42:04.299Z,7.57
2019-02-25T13:44:33.731Z,8.10
2019-02-25T13:47:03.426Z,8.63
2019-02-25T13:49:32.736Z,7.50
2019-02-25T13:52:02.155Z,10.35
2019-02-25T13:54:31.511Z,8.70
2019-02-25T13:57:00.772Z,8.67
2019-02-25T13:59:29.998Z,8.40
2019-02-25T14:01:59.364Z,13.37
2019-02-25T14:04:28.916Z,7.97
2019-02-25T14:06:58.269Z,8.17
2019-02-25T14:09:27.540Z,9.47
2019-02-25T14:11:57.339Z,9.00
2019-02-25T14:14:26.600Z,8.00
2019-02-25T14:16:56.135Z,9.20
2019-02-25T14:19:25.693Z,7.60
2019-02-25T14:21:56.008Z,11.78
2019-02-25T14:24:25.404Z,9.30
2019-02-25T14:26:55.050Z,8.47
2019-02-25T14:29:26.475Z,9.23
2019-02-25T14:31:55.532Z,9.43
2019-02-25T14:34:24.748Z,7.45
2019-02-25T14:36:54.942Z,9.03
2019-02-25T14:39:28.518Z,7.73
2019-02-25T14:41:58.745Z,11.00
2019-02-25T14:44:32.200Z,8.00
2019-02-25T14:46:58.767Z,7.93
2019-02-25T14:49:30.057Z,8.90
2019-02-25T14:52:00.630Z,7.73
2019-02-25T14:54:32.300Z,7.30
2019-02-25T14:57:01.404Z,6.23
2019-02-25T14:59:30.772Z,6.45
2019-02-25T15:02:02.150Z,6.63
2019-02-25T15:04:30.816Z,13.03
2019-02-25T15:06:59.974Z,7.03
2019-02-25T15:09:30.708Z,7.25
2019-02-25T15:12:01.779Z,8.43
2019-02-25T15:14:31.050Z,7.30
2019-02-25T15:17:00.421Z,9.60
2019-02-25T15:19:32.096Z,8.45
2019-02-25T15:22:01.271Z,10.38
2019-02-25T15:24:30.570Z,8.13
2019-02-25T15:27:01.905Z,7.33
2019-02-25T15:29:30.692Z,10.60
2019-02-25T15:32:01.936Z,8.50
2019-02-25T15:34:31.277Z,7.50
2019-02-25T15:37:02.594Z,7.10
2019-02-25T15:39:32.296Z,7.13
2019-02-25T15:42:01.733Z,7.83
2019-02-25T15:44:32.619Z,7.60
2019-02-25T15:47:02.524Z,8.17
2019-02-25T15:49:33.438Z,7.60
2019-02-25T15:52:03.331Z,12.83
2019-02-25T15:54:33.312Z,7.20
2019-02-25T15:57:04.224Z,6.97
2019-02-25T15:59:33.529Z,7.87
2019-02-25T16:02:03.544Z,7.20
2019-02-25T16:04:34.399Z,8.20
2019-02-25T16:07:08.406Z,8.60
2019-02-25T16:09:38.287Z,7.17
2019-02-25T16:12:09.539Z,9.23
2019-02-25T16:14:39.071Z,7.10
2019-02-25T16:17:08.679Z,8.50
2019-02-25T16:19:45.488Z,6.90
2019-02-25T16:22:11.377Z,6.30
2019-02-25T16:24:40.325Z,6.27
2019-02-25T16:27:09.593Z,6.57
2019-02-25T16:29:38.831Z,7.40
2019-02-25T16:32:08.089Z,5.03
2019-02-25T16:34:38.236Z,6.57
2019-02-25T16:37:08.986Z,9.87
2019-02-25T16:39:39.569Z,7.73
2019-02-25T16:42:09.507Z,7.50
2019-02-25T16:44:39.171Z,6.30
2019-02-25T16:47:09.781Z,10.97
2019-02-25T16:49:40.164Z,7.13
2019-02-25T16:52:10.308Z,6.47
2019-02-25T16:54:39.588Z,7.97
2019-02-25T16:57:08.877Z,9.20
2019-02-25T16:59:38.209Z,8.73
2019-02-25T17:02:09.664Z,9.70
2019-02-25T17:04:39.132Z,10.28
2019-02-25T17:07:09.540Z,8.13
2019-02-25T17:09:40.734Z,6.00
2019-02-25T17:12:10.453Z,8.90
2019-02-25T17:14:40.555Z,8.53
2019-02-25T17:17:10.323Z,8.90
2019-02-25T17:19:39.967Z,6.53
2019-02-25T17:22:10.740Z,7.23
2019-02-25T17:24:39.915Z,5.37
2019-02-25T17:27:11.479Z,7.90
2019-02-25T17:29:40.563Z,6.92
2019-02-25T17:32:11.971Z,7.37
2019-02-25T17:34:42.251Z,5.90
2019-02-25T17:37:14.395Z,5.87
2019-02-25T17:39:43.736Z,5.23
2019-02-25T17:42:13.881Z,7.90
2019-02-25T17:44:47.508Z,9.07
2019-02-25T17:47:24.016Z,6.60
2019-02-25T17:49:47.914Z,6.50
2019-02-25T17:52:18.611Z,6.62
2019-02-25T17:54:49.225Z,8.03
2019-02-25T17:57:18.763Z,7.70
2019-02-25T17:59:48.792Z,14.40
2019-02-25T18:02:19.480Z,13.15
2019-02-25T18:04:49.321Z,9.47
2019-02-25T18:07:19.787Z,6.63
2019-02-25T18:09:49.175Z,19.97
2019-02-25T18:12:19.079Z,10.00
2019-02-25T18:14:48.540Z,11.00
2019-02-25T18:17:19.332Z,9.13
2019-02-25T18:19:50.247Z,13.80
2019-02-25T18:22:20.335Z,18.00
2019-02-25T18:24:57.501Z,13.93
2019-02-25T18:27:27.499Z,10.80
2019-02-25T18:29:59.336Z,12.17
2019-02-25T18:32:30.485Z,13.40
2019-02-25T18:35:00.615Z,15.87
2019-02-25T18:37:29.996Z,13.87
2019-02-25T18:40:01.980Z,12.05
2019-02-25T18:42:34.256Z,13.80
2019-02-25T18:45:04.327Z,11.40
2019-02-25T18:47:36.157Z,10.68
2019-02-25T18:50:09.547Z,14.07
2019-02-25T18:52:41.768Z,14.07
2019-02-25T18:55:12.272Z,7.53
2019-02-25T18:57:42.169Z,7.63
2019-02-25T19:00:17.530Z,13.80
2019-02-25T19:02:47.506Z,8.30
2019-02-25T19:05:25.419Z,11.90
2019-02-25T19:07:55.928Z,12.73
2019-02-25T19:10:27.078Z,9.25
2019-02-25T19:12:58.668Z,9.00
2019-02-25T19:15:28.025Z,7.37
2019-02-25T19:17:57.419Z,6.75
2019-02-25T19:20:27.103Z,12.47
2019-02-25T19:23:00.498Z,7.00
2019-02-25T19:25:28.409Z,7.33
2019-02-25T19:27:58.730Z,7.20
2019-02-25T19:30:32.078Z,11.50
2019-02-25T19:33:10.570Z,7.77
2019-02-25T19:35:37.661Z,8.47
2019-02-25T19:38:07.769Z,8.37
2019-02-25T19:40:43.306Z,6.90
2019-02-25T19:43:12.745Z,11.83
2019-02-25T19:45:43.257Z,8.45
2019-02-25T19:48:13.079Z,9.30
2019-02-25T19:50:50.516Z,8.03
2019-02-25T19:53:15.324Z,6.80
2019-02-25T19:55:46.270Z,7.67
2019-02-25T19:58:31.655Z,9.83
2019-02-25T20:01:09.119Z,8.70
2019-02-25T20:03:40.080Z,7.27
2019-02-25T20:06:13.779Z,8.77
2019-02-25T20:08:40.706Z,7.47
2019-02-25T20:11:11.862Z,9.13
2019-02-25T20:13:50.860Z,12.88
2019-02-25T20:16:22.391Z,12.10
2019-02-25T20:18:53.701Z,24.73
2019-02-25T20:21:24.504Z,24.47
2019-02-25T20:23:55.988Z,19.83
2019-02-25T20:26:26.931Z,24.17
2019-02-25T20:28:56.282Z,16.35
2019-02-25T20:31:25.511Z,23.13
2019-02-25T20:33:55.633Z,20.63
2019-02-25T20:36:35.601Z,17.67
2019-02-25T20:39:06.308Z,14.47
2019-02-25T20:41:35.904Z,14.90
2019-02-25T20:44:05.226Z,14.80
2019-02-25T20:46:38.556Z,20.53
2019-02-25T20:49:07.801Z,17.90
2019-02-25T20:51:36.994Z,18.47
2019-02-25T20:54:09.035Z,22.07
2019-02-25T20:56:39.644Z,18.73
2019-02-25T20:59:09.946Z,17.13
2019-02-25T21:01:44.022Z,21.75
2019-02-25T21:04:13.602Z,16.90
2019-02-25T21:06:44.035Z,17.80
2019-02-25T21:09:13.455Z,16.97
2019-02-25T21:11:42.648Z,14.87
2019-02-25T21:14:13.310Z,18.73
2019-02-25T21:16:42.521Z,16.13
2019-02-25T21:19:13.080Z,16.40
2019-02-25T21:21:42.675Z,22.45
2019-02-25T21:24:13.536Z,22.90
2019-02-25T21:26:42.823Z,24.67
2019-02-25T21:29:12.308Z,19.87
2019-02-25T21:31:43.187Z,19.87
2019-02-25T21:34:17.744Z,21.17
2019-02-25T21:36:44.574Z,20.23
2019-02-25T21:39:18.652Z,23.03
2019-02-25T21:41:48.953Z,16.07
2019-02-25T21:44:19.452Z,20.67
2019-02-25T21:46:53.683Z,18.20
2019-02-25T21:49:25.100Z,20.80
2019-02-25T21:51:53.135Z,22.67
2019-02-25T21:54:22.395Z,19.35
2019-02-25T21:56:51.629Z,18.97
2019-02-25T21:59:21.111Z,19.47
2019-02-25T22:01:55.329Z,18.13
2019-02-25T22:04:25.058Z,18.43
2019-02-25T22:06:55.801Z,21.23
2019-02-25T22:09:36.431Z,20.33
2019-02-25T22:11:59.020Z,22.20
2019-02-25T22:14:28.863Z,18.90
2019-02-25T22:17:01.773Z,17.47
2019-02-25T22:19:32.502Z,10.33
2019-02-25T22:22:02.712Z,15.30
2019-02-25T22:24:36.151Z,14.57
2019-02-25T22:27:05.938Z,14.47
2019-02-25T22:29:41.391Z,14.73
2019-02-25T22:32:12.343Z,17.17
2019-02-25T22:34:43.867Z,15.33
2019-02-25T22:37:16.862Z,15.58
2019-02-25T22:39:46.105Z,19.70
2019-02-25T22:42:15.520Z,22.83
2019-02-25T22:44:47.084Z,17.33
2019-02-25T22:47:18.459Z,20.27
2019-02-25T22:49:48.714Z,20.63
2019-02-25T22:52:22.090Z,21.00
2019-02-25T22:54:52.221Z,21.93
2019-02-25T22:57:25.211Z,21.83
2019-02-25T22:59:54.567Z,16.80
2019-02-25T23:02:28.117Z,17.10
2019-02-25T23:04:57.823Z,15.53
2019-02-25T23:07:26.980Z,16.95
2019-02-25T23:09:56.313Z,15.03
2019-02-25T23:12:28.451Z,18.20
2019-02-25T23:14:58.902Z,16.60
2019-02-25T23:17:31.132Z,13.80
2019-02-25T23:20:00.136Z,13.97
2019-02-25T23:22:32.332Z,15.70
2019-02-25T23:25:04.894Z,18.30
2019-02-25T23:27:34.465Z,15.00
2019-02-25T23:30:08.379Z,14.70
2019-02-25T23:32:39.424Z,20.40
2019-02-25T23:35:11.484Z,18.80
2019-02-25T23:37:41.124Z,18.17
2019-02-25T23:40:14.260Z,14.03
2019-02-25T23:42:44.340Z,15.20
2019-02-25T23:45:15.511Z,15.98
2019-02-25T23:47:45.688Z,21.70
2019-02-25T23:50:16.216Z,14.30
2019-02-25T23:52:45.908Z,16.30
2019-02-25T23:55:18.671Z,19.10
2019-02-25T23:57:46.009Z,17.70
